createdAt,value
2022-12-13T00:01:47.733Z,-2.42
2022-12-13T00:04:15.238Z,-2.51
2022-12-13T00:06:42.981Z,-2.65
2022-12-13T00:09:13.976Z,-2.59
2022-12-13T00:11:42.160Z,-2.57
2022-12-13T00:14:09.696Z,-2.57
2022-12-13T00:16:37.997Z,-2.56
2022-12-13T00:19:05.055Z,-2.51
2022-12-13T00:21:33.803Z,-2.48
2022-12-13T00:24:01.915Z,-2.48
2022-12-13T00:26:31.087Z,-2.45
2022-12-13T00:29:05.237Z,-2.48
2022-12-13T00:34:20.449Z,-2.46
2022-12-13T00:36:48.565Z,-2.42
2022-12-13T00:39:16.844Z,-2.37
2022-12-13T00:41:45.242Z,-2.38
2022-12-13T00:44:13.068Z,-2.34
2022-12-13T00:46:41.524Z,-2.33
2022-12-13T00:49:11.008Z,-2.29
2022-12-13T00:51:38.895Z,-2.26
2022-12-13T00:54:06.731Z,-2.24
2022-12-13T00:56:34.489Z,-2.26
2022-12-13T00:59:01.819Z,-2.24
2022-12-13T01:01:32.412Z,-2.24
2022-12-13T01:04:01.666Z,-2.23
2022-12-13T01:06:44.375Z,-2.23
2022-12-13T01:09:31.113Z,-2.30
2022-12-13T01:12:00.716Z,-2.30
2022-12-13T01:14:28.375Z,-2.44
2022-12-13T01:16:56.624Z,-2.45
2022-12-13T01:19:25.684Z,-2.51
2022-12-13T01:22:01.898Z,-2.51
2022-12-13T01:24:30.275Z,-2.51
2022-12-13T01:26:58.531Z,-2.58
2022-12-13T01:29:27.313Z,-2.59
2022-12-13T01:31:55.061Z,-2.62
2022-12-13T01:34:26.678Z,-2.57
2022-12-13T01:36:58.094Z,-2.56
2022-12-13T01:39:27.250Z,-2.56
2022-12-13T01:42:03.585Z,-2.51
2022-12-13T01:44:56.234Z,-2.50
2022-12-13T01:47:42.193Z,-2.49
2022-12-13T01:50:13.122Z,-2.57
2022-12-13T01:52:41.214Z,-2.47
2022-12-13T01:55:09.197Z,-2.48
2022-12-13T01:57:42.140Z,-2.42
2022-12-13T02:00:13.333Z,-2.40
2022-12-13T02:02:41.400Z,-2.32
2022-12-13T02:05:12.141Z,-2.30
2022-12-13T02:07:41.749Z,-2.28
2022-12-13T02:10:09.843Z,-2.28
2022-12-13T02:12:38.848Z,-2.27
2022-12-13T02:15:11.993Z,-2.30
2022-12-13T02:18:10.550Z,-2.17
2022-12-13T02:20:55.583Z,-2.17
2022-12-13T02:24:00.786Z,-2.21
2022-12-13T02:26:55.181Z,-2.18
2022-12-13T02:29:34.947Z,-2.18
2022-12-13T02:32:09.050Z,-2.18
2022-12-13T02:34:40.574Z,-2.21
2022-12-13T02:37:17.844Z,-2.22
2022-12-13T02:39:58.343Z,-2.17
2022-12-13T02:42:35.659Z,-2.25
2022-12-13T02:45:08.255Z,-2.26
2022-12-13T02:47:38.066Z,-2.24
2022-12-13T02:50:08.625Z,-2.23
2022-12-13T02:52:36.173Z,-2.25
2022-12-13T02:55:09.834Z,-2.35
2022-12-13T02:57:39.801Z,-2.29
2022-12-13T03:00:14.348Z,-2.28
2022-12-13T03:03:00.504Z,-2.25
2022-12-13T03:06:06.432Z,-2.28
2022-12-13T03:08:49.159Z,-2.22
2022-12-13T03:11:19.097Z,-2.22
2022-12-13T03:14:02.917Z,-2.22
2022-12-13T03:16:46.488Z,-2.20
2022-12-13T03:19:13.828Z,-2.20
2022-12-13T03:21:48.178Z,-2.16
2022-12-13T03:24:20.977Z,-2.16
2022-12-13T03:26:51.553Z,-2.22
2022-12-13T03:29:24.278Z,-2.20
2022-12-13T03:31:55.507Z,-2.15
2022-12-13T03:34:23.897Z,-2.14
2022-12-13T03:36:52.919Z,-2.20
2022-12-13T03:39:20.494Z,-2.11
2022-12-13T03:41:48.154Z,-2.09
2022-12-13T03:44:15.773Z,-2.15
2022-12-13T03:46:43.515Z,-2.02
2022-12-13T03:49:16.704Z,-2.03
2022-12-13T03:51:45.510Z,-2.15
2022-12-13T03:54:12.932Z,-2.02
2022-12-13T03:56:40.676Z,-2.02
2022-12-13T03:59:08.006Z,-1.99
2022-12-13T04:01:35.613Z,-2.00
2022-12-13T04:04:03.004Z,-2.05
2022-12-13T04:06:33.071Z,-2.03
2022-12-13T04:09:00.748Z,-1.93
2022-12-13T04:11:47.484Z,-2.02
2022-12-13T04:14:22.220Z,-1.97
2022-12-13T04:16:53.713Z,-1.97
2022-12-13T04:19:23.264Z,-1.95
2022-12-13T04:21:54.898Z,-1.97
2022-12-13T04:24:31.620Z,-1.95
2022-12-13T04:27:01.571Z,-1.91
2022-12-13T04:29:34.070Z,-1.96
2022-12-13T04:32:04.838Z,-1.95
2022-12-13T04:34:37.320Z,-1.92
2022-12-13T04:37:06.271Z,-1.97
2022-12-13T04:39:34.371Z,-1.93
2022-12-13T04:42:03.793Z,-1.98
2022-12-13T04:44:35.071Z,-1.98
2022-12-13T04:47:05.131Z,-1.94
2022-12-13T04:49:32.837Z,-1.91
2022-12-13T04:52:01.851Z,-1.91
2022-12-13T04:54:36.650Z,-2.04
2022-12-13T04:57:09.371Z,-2.04
2022-12-13T04:59:37.779Z,-2.08
2022-12-13T05:02:06.670Z,-2.07
2022-12-13T05:04:34.542Z,-2.11
2022-12-13T05:07:02.901Z,-2.06
2022-12-13T05:09:30.549Z,-2.05
2022-12-13T05:12:01.118Z,-2.14
2022-12-13T05:14:31.718Z,-2.10
2022-12-13T05:17:02.333Z,-2.12
2022-12-13T05:19:31.607Z,-2.10
2022-12-13T05:22:01.887Z,-2.08
2022-12-13T05:24:31.703Z,-2.11
2022-12-13T05:27:00.144Z,-2.08
2022-12-13T05:29:28.098Z,-2.05
2022-12-13T05:35:22.017Z,-2.07
2022-12-13T05:37:54.229Z,-2.09
2022-12-13T05:40:26.255Z,-2.12
2022-12-13T05:43:00.719Z,-2.17
2022-12-13T05:45:32.443Z,-2.16
2022-12-13T05:48:00.599Z,-2.18
2022-12-13T05:50:27.954Z,-2.18
2022-12-13T05:52:55.604Z,-2.27
2022-12-13T05:55:22.820Z,-2.28
2022-12-13T05:57:51.227Z,-2.25
2022-12-13T06:00:29.691Z,-2.26
2022-12-13T06:03:00.499Z,-2.34
2022-12-13T06:05:30.385Z,-2.29
2022-12-13T06:07:58.836Z,-2.29
2022-12-13T06:10:35.175Z,-2.37
2022-12-13T06:13:21.556Z,-2.36
2022-12-13T06:15:52.003Z,-2.40
2022-12-13T06:18:30.388Z,-2.48
2022-12-13T06:20:59.024Z,-2.52
2022-12-13T06:23:27.812Z,-2.44
2022-12-13T06:25:55.029Z,-2.43
2022-12-13T06:28:22.971Z,-2.44
2022-12-13T06:30:53.217Z,-2.41
2022-12-13T06:33:23.484Z,-2.45
2022-12-13T06:35:52.908Z,-2.51
2022-12-13T06:38:31.109Z,-2.52
2022-12-13T06:41:18.564Z,-2.52
2022-12-13T06:43:47.835Z,-2.50
2022-12-13T06:46:17.027Z,-2.55
2022-12-13T06:48:45.184Z,-2.58
2022-12-13T06:51:12.554Z,-2.57
2022-12-13T06:53:50.408Z,-2.62
2022-12-13T06:56:17.803Z,-2.61
2022-12-13T06:58:46.185Z,-2.64
2022-12-13T07:01:23.868Z,-2.68
2022-12-13T07:03:55.885Z,-2.69
2022-12-13T07:06:24.479Z,-2.74
2022-12-13T07:08:57.824Z,-2.71
2022-12-13T07:11:27.373Z,-2.73
2022-12-13T07:13:55.833Z,-2.68
2022-12-13T07:16:24.464Z,-2.69
2022-12-13T07:19:00.879Z,-2.78
2022-12-13T07:21:29.785Z,-2.78
2022-12-13T07:23:57.650Z,-2.79
2022-12-13T07:26:25.369Z,-2.85
2022-12-13T07:28:55.543Z,-2.83
2022-12-13T07:31:24.484Z,-2.79
2022-12-13T07:33:52.820Z,-2.86
2022-12-13T07:36:22.400Z,-2.86
2022-12-13T07:38:55.105Z,-2.86
2022-12-13T07:41:24.092Z,-2.80
2022-12-13T07:43:55.116Z,-2.87
2022-12-13T07:46:32.525Z,-2.88
2022-12-13T07:49:03.180Z,-2.88
2022-12-13T07:51:30.504Z,-2.88
2022-12-13T07:53:58.193Z,-2.96
2022-12-13T07:56:25.520Z,-2.94
2022-12-13T07:58:53.307Z,-2.88
2022-12-13T08:01:20.684Z,-2.97
2022-12-13T08:03:49.334Z,-2.90
2022-12-13T08:06:17.274Z,-2.92
2022-12-13T08:08:45.150Z,-2.92
2022-12-13T08:11:15.653Z,-2.87
2022-12-13T08:13:43.685Z,-2.78
2022-12-13T08:16:27.702Z,-2.74
2022-12-13T08:19:03.088Z,-2.70
2022-12-13T08:24:26.216Z,-2.77
2022-12-13T08:26:55.750Z,-2.81
2022-12-13T08:29:34.340Z,-2.68
2022-12-13T08:32:13.342Z,-2.66
2022-12-13T08:34:42.131Z,-2.60
2022-12-13T08:37:09.969Z,-2.64
2022-12-13T08:39:39.012Z,-2.63
2022-12-13T08:42:14.901Z,-2.58
2022-12-13T08:44:53.076Z,-2.49
2022-12-13T08:47:25.099Z,-2.54
2022-12-13T08:49:55.269Z,-2.55
2022-12-13T08:52:23.852Z,-2.53
2022-12-13T08:54:51.962Z,-2.45
2022-12-13T08:57:19.453Z,-2.40
2022-12-13T08:59:47.179Z,-2.41
2022-12-13T09:02:15.269Z,-2.45
2022-12-13T09:04:43.650Z,-2.44
2022-12-13T09:07:10.916Z,-2.29
2022-12-13T09:09:38.874Z,-2.33
2022-12-13T09:12:11.207Z,-2.30
2022-12-13T09:15:01.414Z,-2.22
2022-12-13T09:17:36.475Z,-2.23
2022-12-13T09:20:09.794Z,-2.29
2022-12-13T09:22:39.063Z,-2.39
2022-12-13T09:25:14.928Z,-2.49
2022-12-13T09:27:51.391Z,-2.54
2022-12-13T09:30:19.389Z,-2.60
2022-12-13T09:32:50.031Z,-2.54
2022-12-13T09:35:18.146Z,-2.47
2022-12-13T09:37:46.384Z,-2.44
2022-12-13T09:40:26.372Z,-2.49
2022-12-13T09:43:12.776Z,-2.48
2022-12-13T09:45:45.240Z,-2.59
2022-12-13T09:48:22.888Z,-2.49
2022-12-13T09:50:58.490Z,-2.50
2022-12-13T09:53:40.606Z,-2.50
2022-12-13T09:56:11.761Z,-2.55
2022-12-13T09:58:39.253Z,-2.62
2022-12-13T10:01:08.831Z,-2.62
2022-12-13T10:03:37.406Z,-2.67
2022-12-13T10:06:22.753Z,-2.85
2022-12-13T10:08:57.912Z,-2.82
2022-12-13T10:11:32.341Z,-2.84
2022-12-13T10:14:04.596Z,-2.79
2022-12-13T10:16:36.459Z,-2.78
2022-12-13T10:19:33.537Z,-2.76
2022-12-13T10:22:03.145Z,-2.81
2022-12-13T10:24:47.249Z,-2.85
2022-12-13T10:27:18.120Z,-2.90
2022-12-13T10:30:00.826Z,-2.94
2022-12-13T10:32:29.361Z,-3.01
2022-12-13T10:35:37.443Z,-2.98
2022-12-13T10:38:07.944Z,-3.00
2022-12-13T10:40:37.702Z,-2.95
2022-12-13T10:43:21.743Z,-3.03
2022-12-13T10:46:02.773Z,-3.01
2022-12-13T10:48:51.133Z,-2.95
2022-12-13T10:51:20.367Z,-2.91
2022-12-13T10:53:55.425Z,-2.94
2022-12-13T10:56:24.163Z,-2.90
2022-12-13T10:59:15.027Z,-2.90
2022-12-13T11:01:44.901Z,-3.00
2022-12-13T11:04:34.026Z,-3.07
2022-12-13T11:07:21.621Z,-3.15
2022-12-13T11:09:52.846Z,-3.18
2022-12-13T11:12:23.813Z,-3.15
2022-12-13T11:14:58.429Z,-3.07
2022-12-13T11:17:27.675Z,-3.12
2022-12-13T11:19:57.828Z,-3.17
2022-12-13T11:22:45.475Z,-3.19
2022-12-13T11:25:26.389Z,-3.14
2022-12-13T11:28:37.317Z,-3.05
2022-12-13T11:31:11.468Z,-3.00
2022-12-13T11:33:48.931Z,-2.88
2022-12-13T11:36:16.819Z,-2.92
2022-12-13T11:39:10.879Z,-2.76
2022-12-13T11:41:57.025Z,-2.64
2022-12-13T11:44:54.117Z,-2.56
2022-12-13T11:47:38.650Z,-2.55
2022-12-13T11:50:33.177Z,-2.54
2022-12-13T11:53:21.949Z,-2.48
2022-12-13T11:55:56.997Z,-2.49
2022-12-13T11:59:01.989Z,-2.53
2022-12-13T12:01:51.912Z,-2.48
2022-12-13T12:04:38.091Z,-2.55
2022-12-13T12:07:31.869Z,-2.45
2022-12-13T12:10:25.526Z,-2.45
2022-12-13T12:13:18.857Z,-2.41
2022-12-13T12:16:16.603Z,-2.55
2022-12-13T12:18:44.479Z,-2.51
2022-12-13T12:22:04.877Z,-2.50
2022-12-13T12:24:51.528Z,-2.52
2022-12-13T12:27:37.629Z,-2.65
2022-12-13T12:30:23.554Z,-2.60
2022-12-13T12:33:09.538Z,-2.72
2022-12-13T12:35:52.178Z,-2.68
2022-12-13T12:38:30.066Z,-2.76
2022-12-13T12:41:16.681Z,-2.97
2022-12-13T12:43:45.672Z,-2.94
2022-12-13T12:47:01.589Z,-3.07
2022-12-13T12:49:53.927Z,-3.15
2022-12-13T12:52:47.994Z,-3.26
2022-12-13T12:55:49.157Z,-3.34
2022-12-13T12:58:24.666Z,-3.40
2022-12-13T13:01:11.371Z,-3.34
2022-12-13T13:03:41.725Z,-3.21
2022-12-13T13:06:19.691Z,-3.10
2022-12-13T13:08:56.516Z,-2.99
2022-12-13T13:11:26.275Z,-2.88
2022-12-13T13:14:01.534Z,-2.86
2022-12-13T13:16:40.239Z,-2.83
2022-12-13T13:19:25.497Z,-2.83
2022-12-13T13:22:01.939Z,-2.88
2022-12-13T13:24:31.499Z,-2.79
2022-12-13T13:27:20.071Z,-2.84
2022-12-13T13:29:47.627Z,-2.87
2022-12-13T13:32:29.678Z,-2.90
2022-12-13T13:35:37.914Z,-2.90
2022-12-13T13:38:26.706Z,-2.93
2022-12-13T13:40:54.348Z,-2.97
2022-12-13T13:43:32.454Z,-3.02
2022-12-13T13:46:03.616Z,-3.01
2022-12-13T13:48:53.723Z,-2.99
2022-12-13T13:52:16.732Z,-3.00
2022-12-13T13:55:12.681Z,-3.01
2022-12-13T13:58:21.888Z,-3.07
2022-12-13T14:01:08.949Z,-3.08
2022-12-13T14:04:17.281Z,-3.14
2022-12-13T14:07:04.444Z,-3.15
2022-12-13T14:10:07.951Z,-3.18
2022-12-13T14:13:00.987Z,-3.18
2022-12-13T14:15:53.549Z,-3.21
2022-12-13T14:18:23.797Z,-3.18
2022-12-13T14:21:28.647Z,-3.17
2022-12-13T14:24:03.355Z,-3.22
2022-12-13T14:26:39.735Z,-3.36
2022-12-13T14:29:15.850Z,-3.29
2022-12-13T14:31:45.577Z,-3.32
2022-12-13T14:34:19.291Z,-3.28
2022-12-13T14:36:58.138Z,-3.28
2022-12-13T14:39:26.613Z,-3.31
2022-12-13T14:41:57.132Z,-3.34
2022-12-13T14:44:36.182Z,-3.33
2022-12-13T14:47:06.722Z,-3.38
2022-12-13T14:49:38.935Z,-3.44
2022-12-13T14:52:09.513Z,-3.45
2022-12-13T14:54:44.819Z,-3.54
2022-12-13T14:57:18.636Z,-3.54
2022-12-13T14:59:52.342Z,-3.58
2022-12-13T15:02:32.605Z,-3.59
2022-12-13T15:05:04.016Z,-3.70
2022-12-13T15:07:39.640Z,-3.78
2022-12-13T15:10:48.187Z,-3.78
2022-12-13T15:13:29.411Z,-3.74
2022-12-13T15:16:10.111Z,-3.78
2022-12-13T15:18:41.480Z,-3.73
2022-12-13T15:21:30.628Z,-3.80
2022-12-13T15:23:58.934Z,-3.88
2022-12-13T15:26:32.101Z,-3.86
2022-12-13T15:29:10.375Z,-3.84
2022-12-13T15:31:40.873Z,-3.88
2022-12-13T15:34:31.035Z,-3.87
2022-12-13T15:37:01.972Z,-3.91
2022-12-13T15:39:31.335Z,-4.02
2022-12-13T15:41:59.749Z,-3.98
2022-12-13T15:44:32.931Z,-4.01
2022-12-13T15:47:11.416Z,-4.07
2022-12-13T15:49:49.589Z,-4.07
2022-12-13T15:52:17.133Z,-4.10
2022-12-13T15:55:09.876Z,-4.13
2022-12-13T15:58:04.685Z,-4.14
2022-12-13T16:01:15.756Z,-4.09
2022-12-13T16:03:49.292Z,-4.17
2022-12-13T16:06:24.285Z,-4.16
2022-12-13T16:09:23.926Z,-4.13
2022-12-13T16:12:08.115Z,-4.17
2022-12-13T16:14:50.034Z,-4.19
2022-12-13T16:17:33.230Z,-4.17
2022-12-13T16:20:17.177Z,-4.13
2022-12-13T16:22:51.645Z,-4.14
2022-12-13T16:25:35.649Z,-4.11
2022-12-13T16:28:08.980Z,-4.08
2022-12-13T16:31:15.920Z,-4.11
2022-12-13T16:33:43.456Z,-4.20
2022-12-13T16:36:11.739Z,-4.19
2022-12-13T16:38:39.783Z,-4.14
2022-12-13T16:41:09.379Z,-4.15
2022-12-13T16:43:51.210Z,-4.17
2022-12-13T16:47:17.278Z,-4.15
2022-12-13T16:49:18.631Z,-4.16
2022-12-13T16:51:48.668Z,-4.26
2022-12-13T16:54:17.893Z,-4.20
2022-12-13T16:56:46.000Z,-4.25
2022-12-13T16:59:19.017Z,-4.25
2022-12-13T17:01:47.601Z,-4.28
2022-12-13T17:04:20.616Z,-4.28
2022-12-13T17:06:50.807Z,-4.33
2022-12-13T17:09:19.267Z,-4.35
2022-12-13T17:11:47.113Z,-4.30
2022-12-13T17:14:15.460Z,-4.39
2022-12-13T17:16:43.434Z,-4.42
2022-12-13T17:19:11.994Z,-4.41
2022-12-13T17:21:39.773Z,-4.42
2022-12-13T17:24:08.086Z,-4.42
2022-12-13T17:26:35.663Z,-4.43
2022-12-13T17:29:03.218Z,-4.50
2022-12-13T17:31:35.399Z,-4.52
2022-12-13T17:34:04.457Z,-4.50
2022-12-13T17:36:32.071Z,-4.52
2022-12-13T17:38:59.778Z,-4.53
2022-12-13T17:41:27.500Z,-4.58
2022-12-13T17:43:59.194Z,-4.57
2022-12-13T17:46:27.057Z,-4.57
2022-12-13T17:48:54.548Z,-4.55
2022-12-13T17:51:22.410Z,-4.55
2022-12-13T17:53:49.844Z,-4.55
2022-12-13T17:56:19.379Z,-4.52
2022-12-13T17:58:46.997Z,-4.49
2022-12-13T18:01:15.658Z,-4.54
2022-12-13T18:03:43.776Z,-4.55
2022-12-13T18:06:12.174Z,-4.62
2022-12-13T18:08:42.673Z,-4.60
2022-12-13T18:13:59.481Z,-4.57
2022-12-13T18:16:33.941Z,-4.56
2022-12-13T18:19:06.343Z,-4.53
2022-12-13T18:21:35.703Z,-4.47
2022-12-13T18:24:05.413Z,-4.51
2022-12-13T18:26:34.102Z,-4.42
2022-12-13T18:29:02.443Z,-4.48
2022-12-13T18:31:30.203Z,-4.49
2022-12-13T18:33:57.664Z,-4.53
2022-12-13T18:36:26.777Z,-4.50
2022-12-13T18:38:54.274Z,-4.56
2022-12-13T18:41:24.285Z,-4.55
2022-12-13T18:44:00.052Z,-4.58
2022-12-13T18:46:33.383Z,-4.55
2022-12-13T18:49:01.006Z,-4.61
2022-12-13T18:51:29.127Z,-4.62
2022-12-13T18:53:57.052Z,-4.62
2022-12-13T18:56:26.185Z,-4.59
2022-12-13T18:58:54.463Z,-4.61
2022-12-13T19:01:23.187Z,-4.71
2022-12-13T19:03:51.379Z,-4.67
2022-12-13T19:06:22.875Z,-4.67
2022-12-13T19:08:59.404Z,-4.75
2022-12-13T19:11:29.044Z,-4.71
2022-12-13T19:13:57.471Z,-4.62
2022-12-13T19:16:26.836Z,-4.67
2022-12-13T19:18:54.592Z,-4.60
2022-12-13T19:21:23.083Z,-4.59
2022-12-13T19:23:56.889Z,-4.63
2022-12-13T19:26:28.286Z,-4.56
2022-12-13T19:28:57.997Z,-4.54
2022-12-13T19:31:31.236Z,-4.58
2022-12-13T19:34:01.895Z,-4.58
2022-12-13T19:36:31.322Z,-4.59
2022-12-13T19:38:59.221Z,-4.59
2022-12-13T19:41:27.686Z,-4.60
2022-12-13T19:43:55.682Z,-4.56
2022-12-13T19:46:24.205Z,-4.53
2022-12-13T19:48:51.873Z,-4.56
2022-12-13T19:51:19.864Z,-4.56
2022-12-13T19:53:47.875Z,-4.55
2022-12-13T19:56:18.754Z,-4.57
2022-12-13T19:58:48.505Z,-4.55
2022-12-13T20:01:18.061Z,-4.55
2022-12-13T20:03:46.560Z,-4.58
2022-12-13T20:06:17.142Z,-4.56
2022-12-13T20:08:45.222Z,-4.54
2022-12-13T20:11:19.593Z,-4.60
2022-12-13T20:13:48.750Z,-4.63
2022-12-13T20:16:21.042Z,-4.69
2022-12-13T20:18:53.881Z,-4.70
2022-12-13T20:21:23.505Z,-4.64
2022-12-13T20:23:51.572Z,-4.69
2022-12-13T20:26:27.874Z,-4.69
2022-12-13T20:28:56.366Z,-4.70
2022-12-13T20:31:32.583Z,-4.75
2022-12-13T20:34:05.237Z,-4.67
2022-12-13T20:36:33.187Z,-4.69
2022-12-13T20:39:01.933Z,-4.62
2022-12-13T20:41:32.277Z,-4.67
2022-12-13T20:44:00.719Z,-4.71
2022-12-13T20:46:29.705Z,-4.74
2022-12-13T20:48:58.934Z,-4.92
2022-12-13T20:51:28.483Z,-4.96
2022-12-13T20:53:56.661Z,-5.10
2022-12-13T20:56:26.784Z,-5.27
2022-12-13T20:58:54.759Z,-5.21
2022-12-13T21:01:31.062Z,-5.29
2022-12-13T21:04:00.528Z,-5.44
2022-12-13T21:06:29.894Z,-5.49
2022-12-13T21:09:03.194Z,-5.54
2022-12-13T21:11:35.273Z,-5.68
2022-12-13T21:14:11.176Z,-5.78
2022-12-13T21:16:46.716Z,-5.88
2022-12-13T21:19:22.597Z,-6.05
2022-12-13T21:21:50.898Z,-6.10
2022-12-13T21:24:19.713Z,-6.22
2022-12-13T21:26:47.901Z,-6.33
2022-12-13T21:29:16.445Z,-6.46
2022-12-13T21:31:49.279Z,-6.48
2022-12-13T21:34:18.000Z,-6.50
2022-12-13T21:36:48.456Z,-6.56
2022-12-13T21:39:18.630Z,-6.63
2022-12-13T21:41:46.950Z,-6.71
2022-12-13T21:44:16.374Z,-6.78
2022-12-13T21:49:32.072Z,-6.91
2022-12-13T21:51:59.719Z,-6.97
2022-12-13T21:54:27.173Z,-7.04
2022-12-13T21:57:13.433Z,-7.11
2022-12-13T21:59:40.959Z,-7.16
2022-12-13T22:02:18.445Z,-7.20
2022-12-13T22:04:53.464Z,-7.24
2022-12-13T22:07:32.744Z,-7.31
2022-12-13T22:10:01.399Z,-7.39
2022-12-13T22:12:37.842Z,-7.42
2022-12-13T22:15:13.992Z,-7.47
2022-12-13T22:17:43.198Z,-7.49
2022-12-13T22:20:13.931Z,-7.51
2022-12-13T22:22:44.301Z,-7.54
2022-12-13T22:25:12.642Z,-7.53
2022-12-13T22:27:40.479Z,-7.59
2022-12-13T22:30:08.570Z,-7.63
2022-12-13T22:32:37.030Z,-7.70
2022-12-13T22:35:05.012Z,-7.73
2022-12-13T22:37:33.432Z,-7.75
2022-12-13T22:40:00.912Z,-7.80
2022-12-13T22:42:28.944Z,-7.83
2022-12-13T22:44:56.586Z,-7.88
2022-12-13T22:47:24.420Z,-7.92
2022-12-13T22:49:52.100Z,-7.95
2022-12-13T22:52:20.266Z,-8.12
2022-12-13T22:54:47.576Z,-8.06
2022-12-13T22:57:15.305Z,-8.09
2022-12-13T22:59:42.661Z,-8.10
2022-12-13T23:02:10.670Z,-8.12
2022-12-13T23:04:39.462Z,-8.16
2022-12-13T23:07:07.461Z,-8.15
2022-12-13T23:09:34.901Z,-8.19
2022-12-13T23:12:21.021Z,-8.23
2022-12-13T23:14:48.758Z,-8.27
2022-12-13T23:17:16.513Z,-8.32
2022-12-13T23:19:49.919Z,-8.39
2022-12-13T23:22:22.686Z,-8.41
2022-12-13T23:24:51.231Z,-8.48
2022-12-13T23:27:20.864Z,-8.49
2022-12-13T23:29:48.372Z,-8.58
2022-12-13T23:32:16.351Z,-8.68
2022-12-13T23:34:43.646Z,-8.76
2022-12-13T23:37:11.748Z,-8.80
2022-12-13T23:39:39.266Z,-8.93
2022-12-13T23:42:07.468Z,-9.07
2022-12-13T23:44:35.030Z,-9.11
2022-12-13T23:47:02.711Z,-9.22
2022-12-13T23:49:30.059Z,-9.29
2022-12-13T23:51:57.701Z,-9.43
2022-12-13T23:54:25.110Z,-9.46
2022-12-13T23:56:52.798Z,-9.49
2022-12-13T23:59:20.231Z,-9.51
